Time;durP1;ratioP1;P1;durP2;ratioP2;P2;SDS_P1;SDS_P2;PMS_P1;PMS_P2;Temp;Humidity;BMP_temperature;BMP_pressure;BME280_temperature;BME280_humidity;BME280_pressure;Samples;Min_cycle;Max_cycle;Signal;HPM_P1;HPM_P2
2023/09/06 00:00:45;;;;;;;1.88;1.67;;;;;;;17.19;100.00;101088.75;5049061;28;20558;-48
2023/09/06 00:03:11;;;;;;;1.80;1.67;;;;;;;17.14;100.00;101085.06;5055382;28;20501;-53
2023/09/06 00:05:41;;;;;;;3.92;2.70;;;;;;;17.12;100.00;101093.34;5052977;28;20484;-51
2023/09/06 00:08:16;;;;;;;3.05;2.58;;;;;;;17.11;100.00;101088.19;5048073;28;20504;-48
2023/09/06 00:10:44;;;;;;;2.90;1.65;;;;;;;17.08;100.00;101084.09;5054932;28;20060;-53
2023/09/06 00:13:11;;;;;;;6.00;1.85;;;;;;;17.07;100.00;101087.84;5052291;28;20389;-49
2023/09/06 00:15:37;;;;;;;2.72;1.83;;;;;;;16.93;100.00;101086.28;5058590;28;20537;-53
2023/09/06 00:18:05;;;;;;;2.42;1.98;;;;;;;16.82;100.00;101084.31;5056981;28;20132;-50
2023/09/06 00:20:34;;;;;;;3.92;1.77;;;;;;;16.82;100.00;101089.69;5051386;28;20025;-50
2023/09/06 00:23:01;;;;;;;4.60;1.95;;;;;;;16.77;100.00;101088.47;5055910;28;20048;-53
2023/09/06 00:25:29;;;;;;;3.88;2.35;;;;;;;16.76;100.00;101097.50;5051234;28;20454;-49
2023/09/06 00:27:56;;;;;;;1.65;1.50;;;;;;;16.79;100.00;101089.06;5052399;28;20282;-48
2023/09/06 00:30:22;;;;;;;5.80;2.67;;;;;;;16.77;100.00;101095.66;5047444;28;20064;-49
2023/09/06 00:32:52;;;;;;;2.17;1.85;;;;;;;16.77;100.00;101096.50;5049977;28;20025;-50
2023/09/06 00:35:22;;;;;;;3.67;2.20;;;;;;;16.88;100.00;101086.13;5055318;28;20034;-52
2023/09/06 00:37:47;;;;;;;2.33;1.77;;;;;;;16.94;100.00;101095.97;5054846;28;20063;-53
2023/09/06 00:40:16;;;;;;;3.45;2.03;;;;;;;16.91;100.00;101113.31;5062948;28;20064;-48
2023/09/06 00:42:42;;;;;;;2.83;1.80;;;;;;;16.82;100.00;101103.88;5053340;28;20230;-49
2023/09/06 00:45:07;;;;;;;3.47;2.10;;;;;;;16.75;100.00;101106.59;5049464;28;20608;-53
2023/09/06 00:47:33;;;;;;;5.68;1.85;;;;;;;16.60;100.00;101111.44;5057359;28;20027;-51
2023/09/06 00:49:59;;;;;;;3.65;1.90;;;;;;;16.58;100.00;101118.84;5056192;28;20029;-51
2023/09/06 00:52:24;;;;;;;1.50;1.40;;;;;;;16.47;100.00;101114.16;5047672;28;20025;-51
2023/09/06 00:54:49;;;;;;;3.55;1.27;;;;;;;16.40;100.00;101121.41;5048828;28;20033;-49
2023/09/06 00:57:15;;;;;;;4.25;1.50;;;;;;;16.34;100.00;101117.72;5053225;28;20478;-48
2023/09/06 00:59:41;;;;;;;2.35;2.15;;;;;;;16.33;100.00;101121.44;5061373;28;20035;-48
2023/09/06 01:02:07;;;;;;;6.25;1.38;;;;;;;16.36;100.00;101121.00;5055290;28;20477;-51
2023/09/06 01:04:32;;;;;;;4.57;1.92;;;;;;;16.28;100.00;101124.75;5063510;28;20033;-52
2023/09/06 01:07:00;;;;;;;2.35;1.80;;;;;;;16.13;100.00;101129.56;5057076;28;20032;-47
2023/09/06 01:09:29;;;;;;;2.88;2.05;;;;;;;16.13;100.00;101132.22;5073110;28;20490;-48
2023/09/06 01:11:54;;;;;;;5.72;1.35;;;;;;;16.13;100.00;101126.88;5051083;28;20040;-49
2023/09/06 01:14:20;;;;;;;1.33;1.23;;;;;;;16.06;100.00;101126.09;5078188;28;20029;-47
2023/09/06 01:16:48;;;;;;;2.15;1.75;;;;;;;16.02;100.00;101127.53;5051929;28;20086;-51
2023/09/06 01:19:15;;;;;;;5.65;1.92;;;;;;;16.00;100.00;101122.41;5060769;28;20055;-49
2023/09/06 01:21:49;;;;;;;3.63;2.72;;;;;;;16.01;100.00;101128.59;5058206;28;20492;-50
2023/09/06 01:24:16;;;;;;;2.90;1.80;;;;;;;16.03;100.00;101119.31;5062034;28;20040;-47
2023/09/06 01:26:42;;;;;;;1.63;1.33;;;;;;;16.06;100.00;101115.41;5050723;28;20051;-51
2023/09/06 01:29:08;;;;;;;1.38;1.27;;;;;;;16.07;100.00;101109.81;5047239;28;20025;-51
2023/09/06 01:31:33;;;;;;;1.38;1.27;;;;;;;16.05;100.00;101108.41;5060375;28;20051;-49
2023/09/06 01:33:58;;;;;;;1.60;1.42;;;;;;;16.06;100.00;101113.53;5053068;28;20024;-49
2023/09/06 01:36:24;;;;;;;3.88;2.00;;;;;;;16.11;100.00;101115.59;5058608;28;20032;-48
2023/09/06 01:38:51;;;;;;;2.75;1.85;;;;;;;16.13;100.00;101111.66;5051303;28;20131;-48
2023/09/06 01:41:17;;;;;;;1.58;1.40;;;;;;;16.19;100.00;101104.63;5056035;28;20450;-48
2023/09/06 01:43:42;;;;;;;1.77;1.67;;;;;;;16.18;100.00;101086.94;5056259;28;20060;-48
2023/09/06 01:46:07;;;;;;;2.22;1.95;;;;;;;16.05;100.00;101097.69;5051641;28;20028;-47
2023/09/06 01:48:33;;;;;;;3.63;1.88;;;;;;;15.94;100.00;101101.84;5054802;28;20029;-52
2023/09/06 01:50:58;;;;;;;5.55;1.33;;;;;;;15.95;100.00;101097.31;5057623;28;20836;-48
2023/09/06 01:53:23;;;;;;;3.55;1.50;;;;;;;15.92;100.00;101095.88;5057749;28;20029;-47
2023/09/06 01:55:50;;;;;;;3.78;2.10;;;;;;;15.91;100.00;101084.38;5057755;28;20167;-46
2023/09/06 01:58:16;;;;;;;3.65;2.30;;;;;;;15.96;100.00;101085.59;5057972;28;20028;-49
2023/09/06 02:00:44;;;;;;;3.15;2.33;;;;;;;16.02;100.00;101087.44;5053505;28;20036;-47
2023/09/06 02:03:11;;;;;;;2.38;2.17;;;;;;;16.07;100.00;101085.75;5058585;28;20032;-49
2023/09/06 02:05:37;;;;;;;6.13;2.80;;;;;;;16.13;100.00;101087.59;5056863;28;20483;-48
2023/09/06 02:08:04;;;;;;;3.42;2.15;;;;;;;16.14;100.00;101077.72;5052428;28;20089;-46
2023/09/06 02:10:29;;;;;;;1.40;1.30;;;;;;;16.22;100.00;101074.78;5059872;28;20087;-49
2023/09/06 02:12:55;;;;;;;2.72;1.77;;;;;;;16.28;100.00;101083.81;5059222;28;20036;-52
2023/09/06 02:15:20;;;;;;;2.80;2.10;;;;;;;16.35;100.00;101088.09;5056358;28;20048;-47
2023/09/06 02:17:45;;;;;;;2.35;1.77;;;;;;;16.40;100.00;101083.97;5056048;28;20111;-50
2023/09/06 02:20:17;;;;;;;2.75;1.65;;;;;;;16.38;100.00;101084.16;5053007;28;20036;-51
2023/09/06 02:22:56;;;;;;;1.80;1.63;;;;;;;16.43;100.00;101087.00;5057545;28;20060;-53
2023/09/06 02:25:24;;;;;;;2.63;2.42;;;;;;;16.39;100.00;101084.97;5056127;28;20032;-47
2023/09/06 02:27:50;;;;;;;2.80;2.40;;;;;;;16.27;100.00;101092.88;5053641;28;20024;-50
2023/09/06 02:30:15;;;;;;;2.35;2.15;;;;;;;16.27;100.00;101088.34;5058700;28;20028;-47
2023/09/06 02:32:40;;;;;;;3.05;2.30;;;;;;;16.23;100.00;101094.31;5055175;28;20037;-49
2023/09/06 02:35:07;;;;;;;1.92;1.83;;;;;;;16.18;100.00;101096.81;5056788;28;20355;-50
2023/09/06 02:37:36;;;;;;;6.50;2.50;;;;;;;16.10;100.00;101098.69;5055236;28;20039;-47
2023/09/06 02:40:17;;;;;;;3.33;2.28;;;;;;;16.07;100.00;101101.78;5057696;28;20033;-47
2023/09/06 02:42:44;;;;;;;2.63;1.95;;;;;;;16.15;100.00;101108.75;5057862;28;20036;-48
2023/09/06 02:45:13;;;;;;;3.30;2.45;;;;;;;16.14;100.00;101105.28;5054915;28;20128;-47
2023/09/06 02:47:47;;;;;;;5.38;2.22;;;;;;;16.10;100.00;101104.03;5054036;28;20028;-47
2023/09/06 02:50:25;;;;;;;4.30;1.95;;;;;;;16.20;100.00;101105.47;5052070;28;20045;-48
2023/09/06 02:52:56;;;;;;;3.67;2.08;;;;;;;16.21;100.00;101107.94;5052747;28;20040;-49
2023/09/06 02:55:21;;;;;;;2.28;1.73;;;;;;;16.19;100.00;101099.28;5055917;28;20020;-48
2023/09/06 02:57:49;;;;;;;3.47;2.17;;;;;;;16.14;100.00;101096.44;5055058;28;20082;-49
2023/09/06 03:00:24;;;;;;;3.40;1.80;;;;;;;16.03;100.00;101099.75;5051265;28;20032;-49
2023/09/06 03:02:52;;;;;;;1.98;1.83;;;;;;;15.91;100.00;101103.09;5058708;28;20035;-49
2023/09/06 03:05:17;;;;;;;1.58;1.45;;;;;;;15.79;100.00;101112.78;5058332;28;20029;-47
2023/09/06 03:07:49;;;;;;;3.42;1.90;;;;;;;15.75;100.00;101114.25;5052822;28;20028;-49
2023/09/06 03:10:19;;;;;;;2.30;1.80;;;;;;;15.81;100.00;101115.28;5052699;28;20036;-48
2023/09/06 03:12:57;;;;;;;3.88;2.60;;;;;;;15.79;100.00;101117.31;5057780;28;20143;-47
2023/09/06 03:15:27;;;;;;;4.43;2.03;;;;;;;15.72;100.00;101112.00;5054654;28;20045;-48
2023/09/06 03:17:53;;;;;;;2.35;1.65;;;;;;;15.73;100.00;101110.16;5053117;28;20025;-47
2023/09/06 03:20:19;;;;;;;1.98;1.20;;;;;;;15.70;100.00;101106.06;5057019;28;20489;-50
2023/09/06 03:22:51;;;;;;;8.18;1.60;;;;;;;15.69;100.00;101107.06;5052726;28;20154;-53
2023/09/06 03:25:17;;;;;;;6.45;2.13;;;;;;;15.73;100.00;101107.47;5052584;28;20040;-49
2023/09/06 03:27:43;;;;;;;2.58;1.75;;;;;;;15.69;100.00;101115.09;5054673;28;20028;-49
2023/09/06 03:30:09;;;;;;;2.72;1.92;;;;;;;15.67;100.00;101111.78;5055809;28;20062;-47
2023/09/06 03:32:35;;;;;;;1.98;1.73;;;;;;;15.64;100.00;101114.84;5054404;28;20044;-46
2023/09/06 03:35:04;;;;;;;2.17;1.75;;;;;;;15.69;100.00;101117.75;5049480;28;20107;-47
2023/09/06 03:37:30;;;;;;;2.97;2.78;;;;;;;15.74;100.00;101128.66;5057384;28;20968;-48
2023/09/06 03:39:57;;;;;;;3.20;1.60;;;;;;;15.80;100.00;101127.81;5054087;28;20056;-50
2023/09/06 03:42:23;;;;;;;1.98;1.75;;;;;;;15.83;100.00;101131.94;5059340;28;20078;-48
2023/09/06 03:44:48;;;;;;;3.95;1.80;;;;;;;15.81;100.00;101137.47;5037339;28;20394;-51
2023/09/06 03:47:14;;;;;;;2.13;1.92;;;;;;;15.76;100.00;101136.47;5056168;28;20440;-47
2023/09/06 03:49:40;;;;;;;3.25;2.60;;;;;;;15.68;100.00;101137.47;5054536;28;20032;-51
2023/09/06 03:52:07;;;;;;;2.03;1.83;;;;;;;15.62;100.00;101146.34;5051882;28;21497;-47
2023/09/06 03:54:34;;;;;;;4.47;2.47;;;;;;;15.47;100.00;101146.56;5050230;28;20485;-48
2023/09/06 03:57:04;;;;;;;2.28;2.08;;;;;;;15.41;100.00;101144.69;5056152;28;20028;-48
2023/09/06 03:59:35;;;;;;;3.67;1.60;;;;;;;15.41;100.00;101152.72;5059075;28;20090;-48
2023/09/06 04:02:00;;;;;;;3.30;1.85;;;;;;;15.39;100.00;101152.94;5057884;28;20040;-49
2023/09/06 04:04:26;;;;;;;2.47;1.48;;;;;;;15.33;100.00;101144.91;5057868;28;20028;-51
2023/09/06 04:06:51;;;;;;;4.00;1.58;;;;;;;15.25;100.00;101140.59;5058370;28;20024;-52
2023/09/06 04:09:27;;;;;;;3.08;1.83;;;;;;;15.17;100.00;101148.81;5054228;28;20487;-51
2023/09/06 04:11:53;;;;;;;2.13;1.90;;;;;;;15.22;100.00;101155.19;5054666;28;20577;-48
2023/09/06 04:14:18;;;;;;;5.85;2.08;;;;;;;15.26;100.00;101163.63;5057398;28;20473;-50
2023/09/06 04:16:43;;;;;;;2.97;2.08;;;;;;;15.30;100.00;101161.34;5060810;28;20048;-51
2023/09/06 04:19:09;;;;;;;3.45;1.90;;;;;;;15.31;100.00;101161.16;5049522;28;20343;-48
2023/09/06 04:21:34;;;;;;;2.67;2.47;;;;;;;15.33;100.00;101161.75;5053838;28;20477;-47
2023/09/06 04:23:59;;;;;;;4.70;2.05;;;;;;;15.32;100.00;101162.78;5053277;28;20039;-50
2023/09/06 04:26:25;;;;;;;4.18;2.40;;;;;;;15.41;100.00;101155.38;5057434;28;20427;-51
2023/09/06 04:28:50;;;;;;;1.85;1.75;;;;;;;15.43;100.00;101150.66;5051781;28;20451;-50
2023/09/06 04:31:17;;;;;;;2.35;2.17;;;;;;;15.40;100.00;101149.22;5057899;28;20080;-47
2023/09/06 04:33:43;;;;;;;3.10;2.90;;;;;;;15.27;100.00;101150.03;5047423;28;20053;-46
2023/09/06 04:36:08;;;;;;;6.03;2.38;;;;;;;15.20;100.00;101148.41;5056482;28;20524;-50
2023/09/06 04:38:33;;;;;;;5.40;3.33;;;;;;;15.16;100.00;101149.84;5061790;28;20521;-47
2023/09/06 04:40:59;;;;;;;3.63;2.35;;;;;;;15.13;100.00;101144.94;5057642;28;20020;-52
2023/09/06 04:43:25;;;;;;;2.22;2.00;;;;;;;15.14;100.00;101149.22;5059893;28;20135;-50
2023/09/06 04:45:51;;;;;;;4.28;2.45;;;;;;;15.15;100.00;101137.50;5052645;28;20045;-47
2023/09/06 04:48:16;;;;;;;2.45;2.25;;;;;;;15.18;100.00;101143.28;5057729;28;20155;-49
2023/09/06 04:50:43;;;;;;;2.60;2.30;;;;;;;15.30;100.00;101148.00;5055589;28;20044;-48
2023/09/06 04:53:09;;;;;;;3.55;3.25;;;;;;;15.40;100.00;101151.91;5056480;28;20119;-49
2023/09/06 04:55:35;;;;;;;4.50;3.15;;;;;;;15.38;100.00;101151.28;5052935;28;20032;-51
2023/09/06 04:58:02;;;;;;;3.28;2.72;;;;;;;15.34;100.00;101150.06;5057662;28;20087;-52
2023/09/06 05:00:36;;;;;;;3.17;2.88;;;;;;;15.30;100.00;101143.47;5059349;28;20377;-46
2023/09/06 05:03:03;;;;;;;3.08;2.55;;;;;;;15.27;100.00;101139.34;5055823;28;20509;-50
2023/09/06 05:05:29;;;;;;;4.03;2.40;;;;;;;15.25;100.00;101140.59;5061652;28;20040;-50
2023/09/06 05:07:54;;;;;;;2.72;2.38;;;;;;;15.25;100.00;101137.91;5056475;28;20037;-51
2023/09/06 05:10:19;;;;;;;3.00;2.58;;;;;;;15.16;100.00;101140.00;5070549;28;20037;-50
2023/09/06 05:12:46;;;;;;;9.25;2.72;;;;;;;15.11;100.00;101133.63;5057736;28;20453;-49
2023/09/06 05:15:12;;;;;;;4.47;3.28;;;;;;;15.16;100.00;101136.50;5049944;28;20032;-49
2023/09/06 05:17:41;;;;;;;5.32;3.00;;;;;;;15.23;100.00;101139.97;5058493;28;20028;-54
2023/09/06 05:20:33;;;;;;;2.63;2.17;;;;;;;15.31;100.00;101141.63;5057941;28;20322;-47
2023/09/06 05:23:10;;;;;;;3.00;2.80;;;;;;;15.39;100.00;101147.59;5054564;28;20436;-51
2023/09/06 05:25:36;;;;;;;4.05;2.85;;;;;;;15.47;100.00;101149.22;5059587;28;20035;-47
2023/09/06 05:28:03;;;;;;;5.10;3.22;;;;;;;15.49;100.00;101147.19;5056955;28;20028;-48
2023/09/06 05:30:29;;;;;;;5.95;3.25;;;;;;;15.56;100.00;101150.63;5056335;28;20504;-46
2023/09/06 05:32:56;;;;;;;3.70;3.35;;;;;;;15.55;100.00;101156.22;5071478;28;20472;-49
2023/09/06 05:35:22;;;;;;;6.32;3.22;;;;;;;15.57;100.00;101159.50;5054889;28;20036;-47
2023/09/06 05:37:48;;;;;;;2.83;2.63;;;;;;;15.62;100.00;101157.03;5063594;28;20039;-49
2023/09/06 05:40:14;;;;;;;4.15;2.42;;;;;;;15.61;100.00;101166.06;5056735;28;20116;-50
2023/09/06 05:42:40;;;;;;;3.47;3.03;;;;;;;15.59;100.00;101168.13;5061140;28;20104;-48
2023/09/06 05:45:10;;;;;;;3.97;2.50;;;;;;;15.57;100.00;101164.84;5049112;28;20268;-50
2023/09/06 05:47:36;;;;;;;5.30;2.92;;;;;;;15.57;100.00;101170.19;5056373;28;20035;-47
2023/09/06 05:50:02;;;;;;;4.70;3.78;;;;;;;15.56;100.00;101171.22;5052251;28;20426;-50
2023/09/06 05:52:28;;;;;;;4.97;3.47;;;;;;;15.51;100.00;101173.69;5061475;28;20036;-51
2023/09/06 05:54:54;;;;;;;7.10;3.45;;;;;;;15.55;100.00;101182.94;5060619;28;20547;-50
2023/09/06 05:57:19;;;;;;;4.90;3.17;;;;;;;15.50;100.00;101186.22;5058088;28;20064;-48
2023/09/06 05:59:44;;;;;;;3.35;2.78;;;;;;;15.55;100.00;101188.28;5052021;28;21990;-49
2023/09/06 06:02:10;;;;;;;3.75;3.15;;;;;;;15.59;100.00;101189.50;5057312;28;20048;-51
2023/09/06 06:04:35;;;;;;;3.38;2.85;;;;;;;15.60;100.00;101191.97;5059260;28;20024;-47
2023/09/06 06:07:00;;;;;;;5.35;3.97;;;;;;;15.61;100.00;101193.59;5062543;28;20032;-48
2023/09/06 06:09:27;;;;;;;5.72;3.70;;;;;;;15.63;100.00;101188.06;5059883;28;20044;-48
2023/09/06 06:11:53;;;;;;;8.65;3.92;;;;;;;15.61;100.00;101187.44;5055858;28;20041;-49
2023/09/06 06:14:19;;;;;;;6.25;4.40;;;;;;;15.61;100.00;101182.91;5051605;28;20683;-50
2023/09/06 06:16:44;;;;;;;3.90;3.03;;;;;;;15.67;100.00;101187.47;5049032;28;20029;-51
2023/09/06 06:19:09;;;;;;;5.53;3.20;;;;;;;15.76;100.00;101188.09;5057913;28;20056;-53
2023/09/06 06:21:35;;;;;;;4.47;3.40;;;;;;;15.85;100.00;101189.53;5053636;28;20135;-51
2023/09/06 06:24:01;;;;;;;4.38;3.58;;;;;;;15.96;100.00;101192.59;5052123;28;20041;-47
2023/09/06 06:26:27;;;;;;;5.28;4.30;;;;;;;16.06;100.00;101190.28;5053880;28;20040;-49
2023/09/06 06:28:52;;;;;;;6.25;4.10;;;;;;;16.18;100.00;101199.28;5052091;28;20143;-52
2023/09/06 06:31:17;;;;;;;7.22;5.10;;;;;;;16.25;100.00;101200.09;5042193;28;21024;-52
2023/09/06 06:33:43;;;;;;;5.90;4.05;;;;;;;16.35;100.00;101200.47;5054784;28;20373;-51
2023/09/06 06:36:08;;;;;;;7.15;4.78;;;;;;;16.42;100.00;101197.78;5046668;28;20024;-49
2023/09/06 06:38:34;;;;;;;7.00;3.72;;;;;;;16.56;100.00;101203.91;5050972;28;20024;-51
2023/09/06 06:40:59;;;;;;;6.53;4.47;;;;;;;16.68;100.00;101204.88;5046833;28;20434;-51
2023/09/06 06:43:26;;;;;;;7.20;4.78;;;;;;;16.73;100.00;101207.72;5048425;28;20028;-52
2023/09/06 06:45:53;;;;;;;6.28;4.70;;;;;;;16.84;100.00;101208.94;5055605;28;20480;-47
2023/09/06 06:48:19;;;;;;;7.47;4.65;;;;;;;17.00;100.00;101215.66;5049890;28;20032;-48
2023/09/06 06:50:45;;;;;;;8.50;5.43;;;;;;;17.09;100.00;101219.72;5057466;28;20033;-51
2023/09/06 06:53:11;;;;;;;6.18;4.88;;;;;;;17.18;100.00;101214.91;5048090;28;20046;-48
2023/09/06 06:55:37;;;;;;;7.60;3.95;;;;;;;17.25;100.00;101222.91;5050220;28;20023;-51
2023/09/06 06:58:03;;;;;;;13.02;5.82;;;;;;;17.32;100.00;101224.50;5050000;28;20037;-51
2023/09/06 07:00:31;;;;;;;5.50;4.18;;;;;;;17.40;100.00;101221.56;5053647;28;20060;-50
2023/09/06 07:02:57;;;;;;;6.90;4.78;;;;;;;17.52;100.00;101218.97;5051061;28;20054;-50
2023/09/06 07:05:22;;;;;;;6.53;4.22;;;;;;;17.57;100.00;101221.00;5052994;28;20037;-52
2023/09/06 07:07:48;;;;;;;5.13;4.18;;;;;;;17.64;100.00;101229.81;5047139;28;20028;-49
2023/09/06 07:10:14;;;;;;;5.75;4.75;;;;;;;17.75;100.00;101214.88;5053234;28;20049;-50
2023/09/06 07:12:40;;;;;;;6.97;4.40;;;;;;;17.81;100.00;101220.22;5052018;28;20054;-51
2023/09/06 07:15:06;;;;;;;6.22;4.45;;;;;;;17.93;100.00;101217.59;5049161;28;20039;-53
2023/09/06 07:17:32;;;;;;;6.40;4.55;;;;;;;18.10;100.00;101220.53;5058592;28;20032;-49
2023/09/06 07:19:58;;;;;;;8.63;4.70;;;;;;;18.23;100.00;101223.06;5051396;28;20543;-49
2023/09/06 07:22:24;;;;;;;7.05;5.00;;;;;;;18.34;100.00;101221.50;5065231;28;20037;-49
2023/09/06 07:24:49;;;;;;;6.20;4.70;;;;;;;18.43;100.00;101222.84;5048887;28;20096;-49
2023/09/06 07:27:14;;;;;;;6.38;4.68;;;;;;;18.58;100.00;101216.25;5051437;28;20064;-53
2023/09/06 07:29:40;;;;;;;4.65;4.00;;;;;;;18.70;100.00;101215.25;5053110;28;20076;-50
2023/09/06 07:32:05;;;;;;;3.92;3.53;;;;;;;18.89;100.00;101221.44;5059242;28;20127;-50
2023/09/06 07:34:30;;;;;;;4.97;4.38;;;;;;;19.05;100.00;101213.78;5045356;28;20033;-49
2023/09/06 07:36:56;;;;;;;5.05;4.50;;;;;;;19.19;100.00;101215.22;5048020;28;20035;-48
2023/09/06 07:39:21;;;;;;;8.10;5.57;;;;;;;19.31;100.00;101216.06;5060578;28;20393;-49
2023/09/06 07:41:47;;;;;;;5.85;5.18;;;;;;;19.51;100.00;101223.81;5046993;28;20111;-47
2023/09/06 07:44:12;;;;;;;5.45;4.30;;;;;;;19.64;100.00;101206.63;5056994;28;20040;-51
2023/09/06 07:46:39;;;;;;;6.55;4.93;;;;;;;19.76;100.00;101207.47;5048260;28;20295;-49
2023/09/06 07:49:04;;;;;;;10.77;5.00;;;;;;;19.85;100.00;101204.44;5056647;28;20052;-50
2023/09/06 07:51:30;;;;;;;6.78;3.80;;;;;;;20.02;100.00;101213.44;5062636;28;20893;-53
2023/09/06 07:53:55;;;;;;;6.82;5.45;;;;;;;20.19;100.00;101208.97;5054084;28;20036;-53
2023/09/06 07:56:21;;;;;;;5.72;4.03;;;;;;;20.28;100.00;101206.72;5051973;28;20691;-49
2023/09/06 07:58:46;;;;;;;11.80;5.72;;;;;;;20.35;100.00;101204.72;5047773;28;20074;-48
2023/09/06 08:01:12;;;;;;;7.88;4.65;;;;;;;20.51;100.00;101208.53;5055451;28;20029;-49
2023/09/06 08:03:37;;;;;;;6.85;4.38;;;;;;;20.68;100.00;101208.63;5048802;28;20557;-47
2023/09/06 08:06:04;;;;;;;6.85;4.90;;;;;;;20.82;100.00;101217.22;5054269;28;20021;-49
2023/09/06 08:08:29;;;;;;;6.10;5.00;;;;;;;20.96;100.00;101213.19;5054650;28;20031;-50
2023/09/06 08:10:55;;;;;;;5.75;5.10;;;;;;;21.11;100.00;101215.31;5047971;28;20033;-50
2023/09/06 08:13:20;;;;;;;7.45;5.50;;;;;;;21.26;100.00;101217.47;5049694;28;20115;-52
2023/09/06 08:15:46;;;;;;;6.78;5.10;;;;;;;21.37;100.00;101208.47;5056408;28;20016;-52
2023/09/06 08:18:11;;;;;;;9.32;5.65;;;;;;;21.53;100.00;101207.69;5048832;28;20040;-48
2023/09/06 08:20:38;;;;;;;9.20;6.35;;;;;;;21.70;100.00;101213.06;5055491;28;20060;-52
2023/09/06 08:23:04;;;;;;;9.38;6.30;;;;;;;21.92;100.00;101204.19;5058081;28;20125;-50
2023/09/06 08:25:29;;;;;;;6.82;5.75;;;;;;;22.05;100.00;101203.03;5057683;28;20036;-49
2023/09/06 08:27:55;;;;;;;12.38;7.05;;;;;;;22.21;100.00;101205.69;5054756;28;20040;-51
2023/09/06 08:30:21;;;;;;;8.82;6.50;;;;;;;22.37;100.00;101200.47;5049999;28;20619;-51
2023/09/06 08:32:49;;;;;;;7.53;5.55;;;;;;;22.55;100.00;101207.44;5053498;28;20025;-50
2023/09/06 08:35:17;;;;;;;11.32;6.95;;;;;;;22.71;100.00;101198.41;5045617;28;20535;-52
2023/09/06 08:37:45;;;;;;;8.07;6.22;;;;;;;22.88;100.00;101194.81;5053905;28;20111;-50
2023/09/06 08:40:11;;;;;;;7.85;6.57;;;;;;;23.09;100.00;101193.94;5052677;28;20202;-51
2023/09/06 08:42:38;;;;;;;7.82;4.88;;;;;;;23.32;100.00;101195.50;5054102;28;20495;-51
2023/09/06 08:45:05;;;;;;;11.18;5.43;;;;;;;23.48;100.00;101199.13;5050737;28;20028;-48
2023/09/06 08:47:31;;;;;;;6.93;5.53;;;;;;;23.61;100.00;101187.84;5065270;28;20579;-50
2023/09/06 08:49:57;;;;;;;6.63;4.60;;;;;;;23.72;100.00;101188.75;5061193;28;20089;-51
2023/09/06 08:52:24;;;;;;;8.77;5.70;;;;;;;23.91;100.00;101189.94;5048615;28;20485;-49
2023/09/06 08:54:50;;;;;;;11.63;6.07;;;;;;;24.03;100.00;101184.31;5057270;28;20029;-53
2023/09/06 08:57:17;;;;;;;13.05;7.40;;;;;;;24.11;100.00;101183.81;5057604;28;20442;-52
2023/09/06 08:59:43;;;;;;;6.82;4.60;;;;;;;24.30;100.00;101177.94;5059218;28;20040;-50
2023/09/06 09:02:12;;;;;;;8.82;5.13;;;;;;;24.44;100.00;101170.91;5049301;28;20094;-52
2023/09/06 09:04:42;;;;;;;6.72;4.93;;;;;;;24.63;100.00;101178.56;5046091;28;20035;-51
2023/09/06 09:07:12;;;;;;;7.82;5.13;;;;;;;24.76;100.00;101175.38;5051338;28;20040;-53
2023/09/06 09:09:57;;;;;;;3.85;2.97;;;;;;;25.01;100.00;101175.38;5048805;28;20719;-49
2023/09/06 09:12:24;;;;;;;6.05;5.13;;;;;;;25.11;100.00;101181.88;5057046;28;20079;-48
2023/09/06 09:14:50;;;;;;;6.68;4.25;;;;;;;25.14;100.00;101175.91;5054236;28;20029;-53
2023/09/06 09:17:20;;;;;;;8.18;4.93;;;;;;;25.11;100.00;101171.84;5050406;28;20025;-53
2023/09/06 09:19:50;;;;;;;5.20;3.55;;;;;;;25.20;100.00;101174.88;5060522;28;20024;-53
2023/09/06 09:22:22;;;;;;;4.32;3.60;;;;;;;25.24;100.00;101168.59;5060139;28;20028;-49
2023/09/06 09:24:47;;;;;;;4.88;3.30;;;;;;;25.42;100.00;101167.22;5056137;28;20033;-48
2023/09/06 09:27:12;;;;;;;5.35;3.90;;;;;;;25.59;100.00;101166.94;5055907;28;20051;-53
2023/09/06 09:29:38;;;;;;;4.68;4.05;;;;;;;25.72;100.00;101165.56;5050901;28;20111;-53
2023/09/06 09:32:04;;;;;;;5.20;3.08;;;;;;;25.84;100.00;101174.25;5047617;28;20047;-50
2023/09/06 09:34:30;;;;;;;4.97;3.65;;;;;;;25.97;100.00;101166.56;5046684;28;20033;-53
2023/09/06 09:36:55;;;;;;;5.00;3.83;;;;;;;25.99;100.00;101159.78;5042741;28;21023;-52
2023/09/06 09:39:27;;;;;;;5.38;2.55;;;;;;;26.04;100.00;101172.53;5043359;28;20028;-52
2023/09/06 09:41:56;;;;;;;3.72;3.42;;;;;;;26.10;100.00;101166.00;5043929;28;20029;-49
2023/09/06 09:44:22;;;;;;;4.63;2.65;;;;;;;26.13;100.00;101170.88;5042988;28;20576;-53
2023/09/06 09:46:48;;;;;;;3.90;2.75;;;;;;;26.26;100.00;101170.25;5040037;28;20120;-51
2023/09/06 09:49:13;;;;;;;6.97;3.42;;;;;;;26.24;100.00;101169.72;5047604;28;20044;-51
2023/09/06 09:51:40;;;;;;;3.08;2.90;;;;;;;26.27;100.00;101165.63;5041667;28;20037;-51
2023/09/06 09:54:07;;;;;;;2.95;2.72;;;;;;;26.40;100.00;101158.78;5046266;28;20071;-51
2023/09/06 09:56:34;;;;;;;5.80;2.53;;;;;;;26.50;100.00;101161.44;5043196;28;20044;-51
2023/09/06 09:59:03;;;;;;;1.98;1.80;;;;;;;26.42;100.00;101162.03;5042350;28;20035;-53
2023/09/06 10:01:31;;;;;;;6.13;1.85;;;;;;;26.50;100.00;101161.44;5045037;28;20057;-55
2023/09/06 10:04:00;;;;;;;5.40;2.65;;;;;;;26.73;100.00;101158.03;5040843;28;20113;-52
2023/09/06 10:06:27;;;;;;;5.88;2.38;;;;;;;27.02;100.00;101153.75;5044497;28;20347;-50
2023/09/06 10:08:58;;;;;;;3.42;1.77;;;;;;;27.16;100.00;101158.25;5039751;28;20028;-51
2023/09/06 10:11:25;;;;;;;4.57;2.38;;;;;;;27.18;100.00;101152.53;5043947;28;20045;-48
2023/09/06 10:13:51;;;;;;;3.40;2.90;;;;;;;27.34;100.00;101155.94;5038811;28;20600;-53
2023/09/06 10:16:18;;;;;;;3.30;2.10;;;;;;;27.55;100.00;101149.19;5043956;28;20086;-52
2023/09/06 10:18:44;;;;;;;4.45;2.35;;;;;;;27.69;100.00;101145.75;5040171;28;20085;-51
2023/09/06 10:21:12;;;;;;;3.50;2.00;;;;;;;27.69;100.00;101140.31;5042687;28;20917;-50
2023/09/06 10:23:41;;;;;;;3.85;2.28;;;;;;;27.68;100.00;101146.88;5045430;28;20089;-54
2023/09/06 10:26:07;;;;;;;4.80;1.73;;;;;;;27.52;100.00;101143.47;5052757;28;20028;-54
2023/09/06 10:28:33;;;;;;;3.22;2.53;;;;;;;27.75;100.00;101148.16;5050435;28;20028;-51
2023/09/06 10:31:07;;;;;;;3.15;1.95;;;;;;;27.90;100.00;101147.16;5048142;28;20052;-50
2023/09/06 10:33:35;;;;;;;5.07;1.67;;;;;;;28.13;100.00;101147.44;5050434;28;20162;-52
2023/09/06 10:36:12;;;;;;;2.83;2.15;;;;;;;28.29;100.00;101151.56;5049491;28;20545;-49
2023/09/06 10:38:52;;;;;;;1.73;1.58;;;;;;;28.59;100.00;101155.81;5051545;28;20090;-52
2023/09/06 10:41:22;;;;;;;2.00;1.77;;;;;;;28.81;100.00;101152.47;5050363;28;20115;-50
2023/09/06 10:44:00;;;;;;;4.53;1.90;;;;;;;28.90;100.00;101150.66;5051848;28;20027;-48
2023/09/06 10:46:28;;;;;;;2.60;1.52;;;;;;;28.95;100.00;101148.97;5050964;28;20036;-51
2023/09/06 10:49:12;;;;;;;3.03;2.10;;;;;;;29.18;100.00;101148.06;5049596;28;20063;-51
2023/09/06 10:52:08;;;;;;;5.35;1.50;;;;;;;29.32;100.00;101142.59;5052480;28;20033;-52
2023/09/06 10:54:42;;;;;;;1.63;1.45;;;;;;;29.33;100.00;101141.50;5049757;28;20485;-51
2023/09/06 10:57:10;;;;;;;2.00;1.80;;;;;;;29.48;100.00;101145.84;5052106;28;20111;-53
2023/09/06 10:59:39;;;;;;;1.88;1.75;;;;;;;29.47;100.00;101146.97;5052356;28;20031;-52
2023/09/06 11:02:15;;;;;;;3.47;2.20;;;;;;;29.40;100.00;101143.84;5051839;28;20110;-53
2023/09/06 11:04:42;;;;;;;1.55;1.35;;;;;;;29.67;100.00;101143.88;5049003;28;20043;-49
2023/09/06 11:07:10;;;;;;;2.10;1.70;;;;;;;29.78;100.00;101145.28;5048962;28;20448;-53
2023/09/06 11:09:43;;;;;;;2.58;1.83;;;;;;;29.64;100.00;101149.13;5044176;28;20132;-50
2023/09/06 11:12:13;;;;;;;2.90;1.58;;;;;;;29.65;100.00;101154.31;5044610;28;20067;-56
2023/09/06 11:14:39;;;;;;;2.33;1.20;;;;;;;29.63;100.00;101144.75;5045535;28;20581;-49
2023/09/06 11:17:05;;;;;;;1.73;1.27;;;;;;;29.77;100.00;101148.34;5049591;28;20397;-53